Time;durP1;ratioP1;P1;durP2;ratioP2;P2;SDS_P1;SDS_P2;PMS_P1;PMS_P2;Temp;Humidity;BMP_temperature;BMP_pressure;BME280_temperature;BME280_humidity;BME280_pressure;Samples;Min_cycle;Max_cycle;Signal;HPM_P1;HPM_P2
2024/01/16 00:00:15;;;;;;;;;;;;;;;;;;5075796;28;20395;-89
2024/01/16 00:02:41;;;;;;;;;;;;;;;;;;5093768;28;19952;-89
2024/01/16 00:05:07;;;;;;;;;;;;;;;;;;5086877;28;19912;-89
2024/01/16 00:07:35;;;;;;;;;;;;;;;;;;5082920;28;20365;-90
2024/01/16 00:10:01;;;;;;;;;;;;;;;;;;5087879;28;19912;-90
2024/01/16 00:12:26;;;;;;;;;;;;;;;;;;5083313;28;19999;-91
2024/01/16 00:14:52;;;;;;;;;;;;;;;;;;5090576;28;19912;-90
2024/01/16 00:17:18;;;;;;;;;;;;;;;;;;5086662;28;19912;-90
2024/01/16 00:19:44;;;;;;;;;;;;;;;;;;5090973;28;19913;-89
2024/01/16 00:22:10;;;;;;;;;;;;;;;;;;5082091;28;19916;-90
2024/01/16 00:24:36;;;;;;;;;;;;;;;;;;5087735;28;19912;-89
2024/01/16 00:27:02;;;;;;;;;;;;;;;;;;5078886;28;19961;-89
2024/01/16 00:29:27;;;;;;;;;;;;;;;;;;5086566;28;19920;-89
2024/01/16 00:31:53;;;;;;;;;;;;;;;;;;5089099;28;20390;-89
2024/01/16 00:34:19;;;;;;;;;;;;;;;;;;5083500;28;19923;-89
2024/01/16 00:36:45;;;;;;;;;;;;;;;;;;5079102;28;19921;-89
2024/01/16 00:39:11;;;;;;;;;;;;;;;;;;5078554;28;20216;-89
2024/01/16 00:41:37;;;;;;;;;;;;;;;;;;5084778;28;20285;-89
2024/01/16 00:44:03;;;;;;;;;;;;;;;;;;5087659;28;19969;-90
2024/01/16 00:46:29;;;;;;;;;;;;;;;;;;5081631;28;19951;-90
2024/01/16 00:48:55;;;;;;;;;;;;;;;;;;5079747;28;19935;-90
2024/01/16 00:51:21;;;;;;;;;;;;;;;;;;5068971;28;19912;-90
2024/01/16 00:53:46;;;;;;;;;;;;;;;;;;5077598;28;19913;-91
2024/01/16 00:56:12;;;;;;;;;;;;;;;;;;5071051;28;20331;-90
2024/01/16 00:58:38;;;;;;;;;;;;;;;;;;5092033;28;19931;-91
2024/01/16 01:01:04;;;;;;;;;;;;;;;;;;5095390;28;19912;-89
2024/01/16 01:03:30;;;;;;;;;;;;;;;;;;5092406;28;19917;-89
2024/01/16 01:05:56;;;;;;;;;;;;;;;;;;5092855;28;19984;-88
2024/01/16 01:08:22;;;;;;;;;;;;;;;;;;5078295;28;20433;-88
2024/01/16 01:10:47;;;;;;;;;;;;;;;;;;5081546;28;19913;-89
2024/01/16 01:13:13;;;;;;;;;;;;;;;;;;5087520;28;19908;-88
2024/01/16 01:15:39;;;;;;;;;;;;;;;;;;5074676;28;19952;-88
2024/01/16 01:18:06;;;;;;;;;;;;;;;;;;5088841;28;19971;-88
2024/01/16 01:20:32;;;;;;;;;;;;;;;;;;5086304;28;19936;-88
2024/01/16 01:22:59;;;;;;;;;;;;;;;;;;5083190;28;20507;-88
2024/01/16 01:25:26;;;;;;;;;;;;;;;;;;5073748;28;19912;-87
2024/01/16 01:27:51;;;;;;;;;;;;;;;;;;5057030;28;19916;-88
2024/01/16 01:30:18;;;;;;;;;;;;;;;;;;5085249;28;20268;-88
2024/01/16 01:32:44;;;;;;;;;;;;;;;;;;5079014;28;19924;-88
2024/01/16 01:35:11;;;;;;;;;;;;;;;;;;5075705;28;20298;-88
2024/01/16 01:37:37;;;;;;;;;;;;;;;;;;5087886;28;20378;-88
2024/01/16 01:40:03;;;;;;;;;;;;;;;;;;5091460;28;19916;-88
2024/01/16 01:42:29;;;;;;;;;;;;;;;;;;5087729;28;19919;-88
2024/01/16 01:44:55;;;;;;;;;;;;;;;;;;5073955;28;19913;-88
2024/01/16 01:47:21;;;;;;;;;;;;;;;;;;5083708;28;20290;-88
2024/01/16 01:49:47;;;;;;;;;;;;;;;;;;5074411;28;19959;-88
2024/01/16 01:52:13;;;;;;;;;;;;;;;;;;5085837;28;19916;-89
2024/01/16 01:54:39;;;;;;;;;;;;;;;;;;5090474;28;20467;-89
2024/01/16 01:57:05;;;;;;;;;;;;;;;;;;5086968;28;20299;-89
2024/01/16 01:59:31;;;;;;;;;;;;;;;;;;5089025;28;19939;-88
2024/01/16 02:01:56;;;;;;;;;;;;;;;;;;5085344;28;19908;-88
2024/01/16 02:04:23;;;;;;;;;;;;;;;;;;5089389;28;19912;-88
2024/01/16 02:06:48;;;;;;;;;;;;;;;;;;5076454;28;19912;-88
2024/01/16 02:09:14;;;;;;;;;;;;;;;;;;5084625;28;20263;-88
2024/01/16 02:11:41;;;;;;;;;;;;;;;;;;5080485;28;19916;-88
2024/01/16 02:14:06;;;;;;;;;;;;;;;;;;5078825;28;19913;-88
2024/01/16 02:16:32;;;;;;;;;;;;;;;;;;5076508;28;19935;-89
2024/01/16 02:18:58;;;;;;;;;;;;;;;;;;5083079;28;19995;-88
2024/01/16 02:21:24;;;;;;;;;;;;;;;;;;5055898;28;20007;-88
2024/01/16 02:23:50;;;;;;;;;;;;;;;;;;5087718;28;19923;-88
2024/01/16 02:26:16;;;;;;;;;;;;;;;;;;5074006;28;20410;-87
2024/01/16 02:28:42;;;;;;;;;;;;;;;;;;5074480;28;19916;-86
2024/01/16 02:31:08;;;;;;;;;;;;;;;;;;5083505;28;19912;-86
2024/01/16 02:33:34;;;;;;;;;;;;;;;;;;5074129;28;20366;-87
2024/01/16 02:36:00;;;;;;;;;;;;;;;;;;5072087;28;19924;-87
2024/01/16 02:38:26;;;;;;;;;;;;;;;;;;5071951;28;19967;-87
2024/01/16 02:40:51;;;;;;;;;;;;;;;;;;5081997;28;19912;-87
2024/01/16 02:43:17;;;;;;;;;;;;;;;;;;5078034;28;19912;-87
2024/01/16 02:45:43;;;;;;;;;;;;;;;;;;5081834;28;19920;-87
2024/01/16 02:48:09;;;;;;;;;;;;;;;;;;5071218;28;20031;-87
2024/01/16 02:50:35;;;;;;;;;;;;;;;;;;5074159;28;20436;-87
2024/01/16 02:53:01;;;;;;;;;;;;;;;;;;5083612;28;20050;-87
2024/01/16 02:55:26;;;;;;;;;;;;;;;;;;5087270;28;20393;-87
2024/01/16 02:57:52;;;;;;;;;;;;;;;;;;5076843;28;20290;-88
2024/01/16 03:00:18;;;;;;;;;;;;;;;;;;5079738;28;20012;-88
2024/01/16 03:02:44;;;;;;;;;;;;;;;;;;5067513;28;19919;-88
2024/01/16 03:05:10;;;;;;;;;;;;;;;;;;5070136;28;19908;-89
2024/01/16 03:07:36;;;;;;;;;;;;;;;;;;5087724;28;19916;-90
2024/01/16 03:10:02;;;;;;;;;;;;;;;;;;5091862;28;19934;-89
2024/01/16 03:12:28;;;;;;;;;;;;;;;;;;5097540;28;19912;-89
2024/01/16 03:14:54;;;;;;;;;;;;;;;;;;5094471;28;19912;-89
2024/01/16 03:17:20;;;;;;;;;;;;;;;;;;5092095;28;19927;-90
2024/01/16 03:19:45;;;;;;;;;;;;;;;;;;5086473;28;20599;-90
2024/01/16 03:22:11;;;;;;;;;;;;;;;;;;5093084;28;19915;-89
2024/01/16 03:24:37;;;;;;;;;;;;;;;;;;5096269;28;19919;-90
2024/01/16 03:27:04;;;;;;;;;;;;;;;;;;5081386;28;20000;-90
2024/01/16 03:29:30;;;;;;;;;;;;;;;;;;5087555;28;19922;-90
2024/01/16 03:31:55;;;;;;;;;;;;;;;;;;5086104;28;19916;-90
2024/01/16 03:34:21;;;;;;;;;;;;;;;;;;5087672;28;20622;-89
2024/01/16 03:36:47;;;;;;;;;;;;;;;;;;5097339;28;19920;-91
2024/01/16 03:39:14;;;;;;;;;;;;;;;;;;5097692;28;19920;-90
2024/01/16 03:41:40;;;;;;;;;;;;;;;;;;5094302;28;20374;-91
2024/01/16 03:44:05;;;;;;;;;;;;;;;;;;5086540;28;19913;-90
2024/01/16 03:46:31;;;;;;;;;;;;;;;;;;5091110;28;20431;-91
2024/01/16 03:48:57;;;;;;;;;;;;;;;;;;5084550;28;19919;-91
2024/01/16 03:51:23;;;;;;;;;;;;;;;;;;5068822;28;19980;-90
2024/01/16 03:53:49;;;;;;;;;;;;;;;;;;5095375;28;19912;-90
2024/01/16 03:56:15;;;;;;;;;;;;;;;;;;5090539;28;19917;-90
2024/01/16 03:58:44;;;;;;;;;;;;;;;;;;5078138;28;20188;-89
2024/01/16 04:01:10;;;;;;;;;;;;;;;;;;5080054;28;20329;-89
2024/01/16 04:03:36;;;;;;;;;;;;;;;;;;5072701;28;19916;-90
2024/01/16 04:06:01;;;;;;;;;;;;;;;;;;5085436;28;20219;-89
2024/01/16 04:08:27;;;;;;;;;;;;;;;;;;5084339;28;19919;-89
2024/01/16 04:10:53;;;;;;;;;;;;;;;;;;5086921;28;19912;-89
2024/01/16 04:13:19;;;;;;;;;;;;;;;;;;5088641;28;19920;-89
2024/01/16 04:15:45;;;;;;;;;;;;;;;;;;5076381;28;19913;-89
2024/01/16 04:18:11;;;;;;;;;;;;;;;;;;5087846;28;20446;-89
2024/01/16 04:20:36;;;;;;;;;;;;;;;;;;5070221;28;19936;-89
2024/01/16 04:23:02;;;;;;;;;;;;;;;;;;5085871;28;19988;-89
2024/01/16 04:25:28;;;;;;;;;;;;;;;;;;5076022;28;19918;-89
2024/01/16 04:27:54;;;;;;;;;;;;;;;;;;5092795;28;19912;-90
2024/01/16 04:30:20;;;;;;;;;;;;;;;;;;5079076;28;19947;-89
2024/01/16 04:32:46;;;;;;;;;;;;;;;;;;5089829;28;19934;-89
2024/01/16 04:35:11;;;;;;;;;;;;;;;;;;5086871;28;19952;-89
2024/01/16 04:37:37;;;;;;;;;;;;;;;;;;5082798;28;20526;-89
2024/01/16 04:40:05;;;;;;;;;;;;;;;;;;5066352;28;19948;-89
2024/01/16 04:42:31;;;;;;;;;;;;;;;;;;5095833;28;19916;-89
2024/01/16 04:44:56;;;;;;;;;;;;;;;;;;5083898;28;20481;-89
2024/01/16 04:47:22;;;;;;;;;;;;;;;;;;5092346;28;19931;-89
2024/01/16 04:49:48;;;;;;;;;;;;;;;;;;5081754;28;20007;-90
2024/01/16 04:52:14;;;;;;;;;;;;;;;;;;5084290;28;19917;-89
2024/01/16 04:54:40;;;;;;;;;;;;;;;;;;5087277;28;19986;-89
2024/01/16 04:57:06;;;;;;;;;;;;;;;;;;5090986;28;19912;-89
2024/01/16 04:59:32;;;;;;;;;;;;;;;;;;5092128;28;20391;-89
2024/01/16 05:01:58;;;;;;;;;;;;;;;;;;5090175;28;19913;-89
2024/01/16 05:04:24;;;;;;;;;;;;;;;;;;5088524;28;20394;-90
2024/01/16 05:06:49;;;;;;;;;;;;;;;;;;5088842;28;19934;-89
2024/01/16 05:09:15;;;;;;;;;;;;;;;;;;5092603;28;19912;-90
2024/01/16 05:11:41;;;;;;;;;;;;;;;;;;5088669;28;19944;-90
2024/01/16 05:14:07;;;;;;;;;;;;;;;;;;5088086;28;19912;-90
2024/01/16 05:16:33;;;;;;;;;;;;;;;;;;5096545;28;19999;-89
2024/01/16 05:18:59;;;;;;;;;;;;;;;;;;5081720;28;19920;-89
2024/01/16 05:21:25;;;;;;;;;;;;;;;;;;5089190;28;19943;-88
2024/01/16 05:23:50;;;;;;;;;;;;;;;;;;5084109;28;19912;-89
2024/01/16 05:26:16;;;;;;;;;;;;;;;;;;5091295;28;20400;-90
2024/01/16 05:28:42;;;;;;;;;;;;;;;;;;5081285;28;20323;-85
2024/01/16 05:31:08;;;;;;;;;;;;;;;;;;5086304;28;19908;-88
2024/01/16 05:33:34;;;;;;;;;;;;;;;;;;5084745;28;19998;-81
2024/01/16 05:36:00;;;;;;;;;;;;;;;;;;5077232;28;19978;-87
2024/01/16 05:38:26;;;;;;;;;;;;;;;;;;5080086;28;19917;-87
2024/01/16 05:40:51;;;;;;;;;;;;;;;;;;5087564;28;19937;-82
2024/01/16 05:43:17;;;;;;;;;;;;;;;;;;5083152;28;19924;-87
2024/01/16 05:45:43;;;;;;;;;;;;;;;;;;5084003;28;19908;-85
2024/01/16 05:48:10;;;;;;;;;;;;;;;;;;5087831;28;20264;-87
2024/01/16 05:50:36;;;;;;;;;;;;;;;;;;5094727;28;19970;-87
2024/01/16 05:53:02;;;;;;;;;;;;;;;;;;5067284;28;19912;-86
2024/01/16 05:55:31;;;;;;;;;;;;;;;;;;5087307;28;19912;-84
2024/01/16 05:57:59;;;;;;;;;;;;;;;;;;5076231;28;19913;-85
2024/01/16 06:00:25;;;;;;;;;;;;;;;;;;5084920;28;19950;-85
2024/01/16 06:02:50;;;;;;;;;;;;;;;;;;5072506;28;19916;-86
2024/01/16 06:05:17;;;;;;;;;;;;;;;;;;5073621;28;19932;-85
2024/01/16 06:07:42;;;;;;;;;;;;;;;;;;5069930;28;20389;-85
2024/01/16 06:10:09;;;;;;;;;;;;;;;;;;5071561;28;19916;-85
2024/01/16 06:12:35;;;;;;;;;;;;;;;;;;5073837;28;19908;-85
2024/01/16 06:15:00;;;;;;;;;;;;;;;;;;5070966;28;20040;-85
2024/01/16 06:17:26;;;;;;;;;;;;;;;;;;5077558;28;19919;-86
2024/01/16 06:19:52;;;;;;;;;;;;;;;;;;5071802;28;20271;-84
2024/01/16 06:22:18;;;;;;;;;;;;;;;;;;5082921;28;20809;-84
2024/01/16 06:24:44;;;;;;;;;;;;;;;;;;5089355;28;20003;-86
2024/01/16 06:27:10;;;;;;;;;;;;;;;;;;5078839;28;19927;-86
2024/01/16 06:29:36;;;;;;;;;;;;;;;;;;5086470;28;19912;-86
2024/01/16 06:32:01;;;;;;;;;;;;;;;;;;5052191;28;19912;-86
2024/01/16 06:34:27;;;;;;;;;;;;;;;;;;5082486;28;20371;-86
2024/01/16 06:36:53;;;;;;;;;;;;;;;;;;5074167;28;19927;-86
2024/01/16 06:39:19;;;;;;;;;;;;;;;;;;5083417;28;20492;-86
2024/01/16 06:41:45;;;;;;;;;;;;;;;;;;5075126;28;19966;-85
2024/01/16 06:44:11;;;;;;;;;;;;;;;;;;5071103;28;19916;-87
2024/01/16 06:46:37;;;;;;;;;;;;;;;;;;5072124;28;20271;-86
2024/01/16 06:49:02;;;;;;;;;;;;;;;;;;5077367;28;20484;-85
2024/01/16 06:51:28;;;;;;;;;;;;;;;;;;5084365;28;20097;-86
2024/01/16 06:53:54;;;;;;;;;;;;;;;;;;5081095;28;19951;-84
2024/01/16 06:56:20;;;;;;;;;;;;;;;;;;5072565;28;19916;-84
2024/01/16 06:58:46;;;;;;;;;;;;;;;;;;5071270;28;20023;-84
2024/01/16 07:01:12;;;;;;;;;;;;;;;;;;5071915;28;20428;-84
2024/01/16 07:03:38;;;;;;;;;;;;;;;;;;5080537;28;20529;-85
2024/01/16 07:06:04;;;;;;;;;;;;;;;;;;5077014;28;19912;-85
2024/01/16 07:08:30;;;;;;;;;;;;;;;;;;5079050;28;20374;-86
2024/01/16 07:10:56;;;;;;;;;;;;;;;;;;5076710;28;19916;-86
2024/01/16 07:13:22;;;;;;;;;;;;;;;;;;5079148;28;19934;-86
2024/01/16 07:15:48;;;;;;;;;;;;;;;;;;5056092;28;19916;-87
2024/01/16 07:18:14;;;;;;;;;;;;;;;;;;5073927;28;19920;-86
2024/01/16 07:20:40;;;;;;;;;;;;;;;;;;5084134;28;19924;-85
2024/01/16 07:23:06;;;;;;;;;;;;;;;;;;5069556;28;19909;-86
2024/01/16 07:25:32;;;;;;;;;;;;;;;;;;5087994;28;20026;-86
2024/01/16 07:27:58;;;;;;;;;;;;;;;;;;5073330;28;19959;-86
2024/01/16 07:30:24;;;;;;;;;;;;;;;;;;5082669;28;19919;-84
2024/01/16 07:32:51;;;;;;;;;;;;;;;;;;5083058;28;20003;-86
2024/01/16 07:35:17;;;;;;;;;;;;;;;;;;5086549;28;20081;-84
2024/01/16 07:37:42;;;;;;;;;;;;;;;;;;5068887;28;20012;-86
2024/01/16 07:40:10;;;;;;;;;;;;;;;;;;5070844;28;21258;-86
2024/01/16 07:42:36;;;;;;;;;;;;;;;;;;5068565;28;19917;-86
2024/01/16 07:45:04;;;;;;;;;;;;;;;;;;5086240;28;19916;-85
2024/01/16 07:47:29;;;;;;;;;;;;;;;;;;5072416;28;20019;-85
2024/01/16 07:49:55;;;;;;;;;;;;;;;;;;5072616;28;20007;-86
2024/01/16 07:52:21;;;;;;;;;;;;;;;;;;5068699;28;19920;-85
2024/01/16 07:54:47;;;;;;;;;;;;;;;;;;5079238;28;20379;-86
2024/01/16 07:57:14;;;;;;;;;;;;;;;;;;5057255;28;19908;-84
2024/01/16 07:59:40;;;;;;;;;;;;;;;;;;5082566;28;20267;-85
2024/01/16 08:02:06;;;;;;;;;;;;;;;;;;5077376;28;19919;-86
2024/01/16 08:04:33;;;;;;;;;;;;;;;;;;5066328;28;19912;-85
2024/01/16 08:06:58;;;;;;;;;;;;;;;;;;5073653;28;19969;-86
2024/01/16 08:09:25;;;;;;;;;;;;;;;;;;5076487;28;20003;-86
2024/01/16 08:11:50;;;;;;;;;;;;;;;;;;5081944;28;19971;-86
2024/01/16 08:14:16;;;;;;;;;;;;;;;;;;5068226;28;20025;-86
2024/01/16 08:16:42;;;;;;;;;;;;;;;;;;5068244;28;20120;-86
2024/01/16 08:19:08;;;;;;;;;;;;;;;;;;5069056;28;20018;-85
2024/01/16 08:21:34;;;;;;;;;;;;;;;;;;5086007;28;19908;-86
2024/01/16 08:24:00;;;;;;;;;;;;;;;;;;5058792;28;19920;-86
2024/01/16 08:26:26;;;;;;;;;;;;;;;;;;5068679;28;19919;-86
2024/01/16 08:28:51;;;;;;;;;;;;;;;;;;5074508;28;20370;-88
2024/01/16 08:31:20;;;;;;;;;;;;;;;;;;5093456;28;19916;-85
2024/01/16 08:33:47;;;;;;;;;;;;;;;;;;5087543;28;19913;-88
2024/01/16 08:36:13;;;;;;;;;;;;;;;;;;5086296;28;19924;-87
2024/01/16 08:38:39;;;;;;;;;;;;;;;;;;5084603;28;19981;-87
2024/01/16 08:41:06;;;;;;;;;;;;;;;;;;5079942;28;19960;-87
2024/01/16 08:43:32;;;;;;;;;;;;;;;;;;5082718;28;19916;-87
2024/01/16 08:45:58;;;;;;;;;;;;;;;;;;5089400;28;19916;-88
2024/01/16 08:48:23;;;;;;;;;;;;;;;;;;5095290;28;19923;-87
2024/01/16 08:50:49;;;;;;;;;;;;;;;;;;5083612;28;19916;-88
2024/01/16 08:53:15;;;;;;;;;;;;;;;;;;5088588;28;19934;-85
2024/01/16 08:55:41;;;;;;;;;;;;;;;;;;5093252;28;19912;-88
2024/01/16 08:58:07;;;;;;;;;;;;;;;;;;5091456;28;19947;-83
2024/01/16 09:00:33;;;;;;;;;;;;;;;;;;5081775;28;19974;-85
2024/01/16 09:02:59;;;;;;;;;;;;;;;;;;5073962;28;20290;-84
2024/01/16 09:05:25;;;;;;;;;;;;;;;;;;5071686;28;19916;-84
2024/01/16 09:07:52;;;;;;;;;;;;;;;;;;5075804;28;20061;-84
2024/01/16 09:10:18;;;;;;;;;;;;;;;;;;5075387;28;19920;-85
2024/01/16 09:12:44;;;;;;;;;;;;;;;;;;5071530;28;19912;-85
2024/01/16 09:15:10;;;;;;;;;;;;;;;;;;5072239;28;19938;-84
2024/01/16 09:17:36;;;;;;;;;;;;;;;;;;5083806;28;20359;-84
2024/01/16 09:20:01;;;;;;;;;;;;;;;;;;5082728;28;20324;-84
2024/01/16 09:22:28;;;;;;;;;;;;;;;;;;5090126;28;19923;-84
2024/01/16 09:24:53;;;;;;;;;;;;;;;;;;5073818;28;20031;-86
2024/01/16 09:27:19;;;;;;;;;;;;;;;;;;5072847;28;20410;-88
2024/01/16 09:29:45;;;;;;;;;;;;;;;;;;5084743;28;19912;-85
2024/01/16 09:32:11;;;;;;;;;;;;;;;;;;5083104;28;19912;-85
2024/01/16 09:34:37;;;;;;;;;;;;;;;;;;5076997;28;19919;-85
2024/01/16 09:37:03;;;;;;;;;;;;;;;;;;5080799;28;20106;-85
2024/01/16 09:39:37;;;;;;;;;;;;;;;;;;5078864;28;19924;-85
2024/01/16 09:42:04;;;;;;;;;;;;;;;;;;5078947;28;20379;-85
2024/01/16 09:44:30;;;;;;;;;;;;;;;;;;5077614;28;20414;-85
2024/01/16 09:46:56;;;;;;;;;;;;;;;;;;5054599;28;19919;-86
2024/01/16 09:49:23;;;;;;;;;;;;;;;;;;5076838;28;19919;-86
2024/01/16 09:51:49;;;;;;;;;;;;;;;;;;5075673;28;20008;-86
2024/01/16 09:54:14;;;;;;;;;;;;;;;;;;5075154;28;20402;-87
2024/01/16 09:56:40;;;;;;;;;;;;;;;;;;5075910;28;20393;-78
2024/01/16 09:59:06;;;;;;;;;;;;;;;;;;5080502;28;20295;-76
2024/01/16 10:01:32;;;;;;;;;;;;;;;;;;5081482;28;19951;-77
2024/01/16 10:03:58;;;;;;;;;;;;;;;;;;5053956;28;20737;-76
2024/01/16 10:06:24;;;;;;;;;;;;;;;;;;5086215;28;20244;-76
2024/01/16 10:08:50;;;;;;;;;;;;;;;;;;5071530;28;19957;-77
2024/01/16 10:11:15;;;;;;;;;;;;;;;;;;5070220;28;19908;-76
2024/01/16 10:13:41;;;;;;;;;;;;;;;;;;5069944;28;19916;-77
2024/01/16 10:16:07;;;;;;;;;;;;;;;;;;5089691;28;19912;-77
2024/01/16 10:18:33;;;;;;;;;;;;;;;;;;5090000;28;19938;-77
2024/01/16 10:20:59;;;;;;;;;;;;;;;;;;5090379;28;20002;-76
2024/01/16 10:23:25;;;;;;;;;;;;;;;;;;5069837;28;20699;-77
2024/01/16 10:25:51;;;;;;;;;;;;;;;;;;5069719;28;20394;-76
2024/01/16 10:28:17;;;;;;;;;;;;;;;;;;5072010;28;19909;-77
2024/01/16 10:30:43;;;;;;;;;;;;;;;;;;5078095;28;19916;-77
2024/01/16 10:33:09;;;;;;;;;;;;;;;;;;5069575;28;20256;-76
2024/01/16 10:35:35;;;;;;;;;;;;;;;;;;5069532;28;19917;-77
2024/01/16 10:38:01;;;;;;;;;;;;;;;;;;5069386;28;20365;-77
2024/01/16 10:40:27;;;;;;;;;;;;;;;;;;5071013;28;19917;-77
2024/01/16 10:42:53;;;;;;;;;;;;;;;;;;5089893;28;19909;-77
2024/01/16 10:45:22;;;;;;;;;;;;;;;;;;5079294;28;20015;-77
2024/01/16 10:47:48;;;;;;;;;;;;;;;;;;5069286;28;19916;-77
2024/01/16 10:50:14;;;;;;;;;;;;;;;;;;5069255;28;19913;-77
2024/01/16 10:52:40;;;;;;;;;;;;;;;;;;5069423;28;19913;-76
2024/01/16 10:55:07;;;;;;;;;;;;;;;;;;5080899;28;19915;-76
2024/01/16 10:57:33;;;;;;;;;;;;;;;;;;5089059;28;19912;-77
2024/01/16 10:59:59;;;;;;;;;;;;;;;;;;5087269;28;19916;-76
2024/01/16 11:02:25;;;;;;;;;;;;;;;;;;5076241;28;20371;-75
2024/01/16 11:04:50;;;;;;;;;;;;;;;;;;5069520;28;20281;-76
2024/01/16 11:07:17;;;;;;;;;;;;;;;;;;5068921;28;20009;-76
2024/01/16 11:09:43;;;;;;;;;;;;;;;;;;5070156;28;19919;-76
2024/01/16 11:12:11;;;;;;;;;;;;;;;;;;5076215;28;20409;-75
2024/01/16 11:14:36;;;;;;;;;;;;;;;;;;5070678;28;19920;-75
2024/01/16 11:17:02;;;;;;;;;;;;;;;;;;5089108;28;19996;-76
2024/01/16 11:19:28;;;;;;;;;;;;;;;;;;5070705;28;19923;-76
2024/01/16 11:21:54;;;;;;;;;;;;;;;;;;5072790;28;19913;-76
2024/01/16 11:24:20;;;;;;;;;;;;;;;;;;5068549;28;20379;-76
2024/01/16 11:26:46;;;;;;;;;;;;;;;;;;5068983;28;20297;-75
2024/01/16 11:29:11;;;;;;;;;;;;;;;;;;5078412;28;19908;-76
2024/01/16 11:31:37;;;;;;;;;;;;;;;;;;5087500;28;19919;-76
2024/01/16 11:34:04;;;;;;;;;;;;;;;;;;5088743;28;19964;-76
2024/01/16 11:36:30;;;;;;;;;;;;;;;;;;5088636;28;19974;-76
2024/01/16 11:38:56;;;;;;;;;;;;;;;;;;5088787;28;19956;-76
2024/01/16 11:41:22;;;;;;;;;;;;;;;;;;5086656;28;20307;-76
2024/01/16 11:43:48;;;;;;;;;;;;;;;;;;5089134;28;19998;-76
2024/01/16 11:46:14;;;;;;;;;;;;;;;;;;5086604;28;19919;-76
2024/01/16 11:48:40;;;;;;;;;;;;;;;;;;5088625;28;19916;-75
2024/01/16 11:51:05;;;;;;;;;;;;;;;;;;5071380;28;19913;-76
2024/01/16 11:53:36;;;;;;;;;;;;;;;;;;5068398;28;19909;-76
2024/01/16 11:56:02;;;;;;;;;;;;;;;;;;5068634;28;19912;-75
2024/01/16 11:58:28;;;;;;;;;;;;;;;;;;5050317;28;20271;-76
2024/01/16 12:00:53;;;;;;;;;;;;;;;;;;5076513;28;20294;-76
2024/01/16 12:03:19;;;;;;;;;;;;;;;;;;5068086;28;19913;-76
2024/01/16 12:05:45;;;;;;;;;;;;;;;;;;5069643;28;19912;-76
2024/01/16 12:08:11;;;;;;;;;;;;;;;;;;5072366;28;19908;-76
2024/01/16 12:10:37;;;;;;;;;;;;;;;;;;5076174;28;19954;-76
2024/01/16 12:13:03;;;;;;;;;;;;;;;;;;5092518;28;19953;-76
2024/01/16 12:15:30;;;;;;;;;;;;;;;;;;5090749;28;19912;-76
2024/01/16 12:17:56;;;;;;;;;;;;;;;;;;5093028;28;19912;-76
2024/01/16 12:20:21;;;;;;;;;;;;;;;;;;5092656;28;19912;-76
2024/01/16 12:22:47;;;;;;;;;;;;;;;;;;5090119;28;19934;-76
2024/01/16 12:25:13;;;;;;;;;;;;;;;;;;5092547;28;20263;-76
2024/01/16 12:27:39;;;;;;;;;;;;;;;;;;5092622;28;19918;-76
2024/01/16 12:30:07;;;;;;;;;;;;;;;;;;5090546;28;20316;-77
2024/01/16 12:32:33;;;;;;;;;;;;;;;;;;5092174;28;19959;-77
2024/01/16 12:34:58;;;;;;;;;;;;;;;;;;5092513;28;19962;-76
2024/01/16 12:37:24;;;;;;;;;;;;;;;;;;5091734;28;19920;-76
2024/01/16 12:39:51;;;;;;;;;;;;;;;;;;5092151;28;19935;-75
2024/01/16 12:42:17;;;;;;;;;;;;;;;;;;5088881;28;20006;-76
2024/01/16 12:44:43;;;;;;;;;;;;;;;;;;5071714;28;20007;-76
2024/01/16 12:47:09;;;;;;;;;;;;;;;;;;5071843;28;20751;-76
2024/01/16 12:49:35;;;;;;;;;;;;;;;;;;5071476;28;20011;-75
2024/01/16 12:52:01;;;;;;;;;;;;;;;;;;5071292;28;19915;-76
2024/01/16 12:54:28;;;;;;;;;;;;;;;;;;5078573;28;19916;-76
2024/01/16 12:56:54;;;;;;;;;;;;;;;;;;5091919;28;19933;-76
2024/01/16 12:59:20;;;;;;;;;;;;;;;;;;5091169;28;20026;-76
2024/01/16 13:01:46;;;;;;;;;;;;;;;;;;5082097;28;19920;-76
2024/01/16 13:04:12;;;;;;;;;;;;;;;;;;5091785;28;19919;-76
2024/01/16 13:06:38;;;;;;;;;;;;;;;;;;5091595;28;19915;-76
2024/01/16 13:09:05;;;;;;;;;;;;;;;;;;5091476;28;20088;-76
2024/01/16 13:11:31;;;;;;;;;;;;;;;;;;5089529;28;19927;-77
2024/01/16 13:13:57;;;;;;;;;;;;;;;;;;5091459;28;19909;-77
2024/01/16 13:16:22;;;;;;;;;;;;;;;;;;5089180;28;19912;-76
2024/01/16 13:18:48;;;;;;;;;;;;;;;;;;5090235;28;19969;-76
2024/01/16 13:21:14;;;;;;;;;;;;;;;;;;5091205;28;19908;-76
2024/01/16 13:23:40;;;;;;;;;;;;;;;;;;5076091;28;20366;-76
2024/01/16 13:26:07;;;;;;;;;;;;;;;;;;5070850;28;19916;-76
2024/01/16 13:28:32;;;;;;;;;;;;;;;;;;5074858;28;19922;-76
2024/01/16 13:30:58;;;;;;;;;;;;;;;;;;5090503;28;19912;-76
2024/01/16 13:33:26;;;;;;;;;;;;;;;;;;5071140;28;20378;-76
2024/01/16 13:35:54;;;;;;;;;;;;;;;;;;5070570;28;19966;-76
2024/01/16 13:38:20;;;;;;;;;;;;;;;;;;5070409;28;19923;-76
2024/01/16 13:40:46;;;;;;;;;;;;;;;;;;5070834;28;19912;-76
2024/01/16 13:43:11;;;;;;;;;;;;;;;;;;5081187;28;20342;-76
2024/01/16 13:45:38;;;;;;;;;;;;;;;;;;5078975;28;20062;-76
2024/01/16 13:48:04;;;;;;;;;;;;;;;;;;5085020;28;20046;-76
2024/01/16 13:50:30;;;;;;;;;;;;;;;;;;5090795;28;20032;-77
2024/01/16 13:52:56;;;;;;;;;;;;;;;;;;5090909;28;19915;-76
2024/01/16 13:55:22;;;;;;;;;;;;;;;;;;5088043;28;20410;-76
2024/01/16 13:57:48;;;;;;;;;;;;;;;;;;5079592;28;19927;-76
2024/01/16 14:00:15;;;;;;;;;;;;;;;;;;5070127;28;19913;-76
2024/01/16 14:02:41;;;;;;;;;;;;;;;;;;5071065;28;19990;-76
2024/01/16 14:05:09;;;;;;;;;;;;;;;;;;5070383;28;20375;-78
2024/01/16 14:07:35;;;;;;;;;;;;;;;;;;5070498;28;20394;-77
2024/01/16 14:10:00;;;;;;;;;;;;;;;;;;5071633;28;19916;-76
2024/01/16 14:12:26;;;;;;;;;;;;;;;;;;5070603;28;19947;-76
2024/01/16 14:14:52;;;;;;;;;;;;;;;;;;5052031;28;20378;-76
2024/01/16 14:17:18;;;;;;;;;;;;;;;;;;5070022;28;20356;-77
2024/01/16 14:19:44;;;;;;;;;;;;;;;;;;5070172;28;20282;-77
2024/01/16 14:22:10;;;;;;;;;;;;;;;;;;5069769;28;20369;-77
2024/01/16 14:24:37;;;;;;;;;;;;;;;;;;5069729;28;19959;-77
2024/01/16 14:27:03;;;;;;;;;;;;;;;;;;5069924;28;19908;-77
2024/01/16 14:29:29;;;;;;;;;;;;;;;;;;5072828;28;19912;-77
2024/01/16 14:31:56;;;;;;;;;;;;;;;;;;5084709;28;19917;-77
2024/01/16 14:34:23;;;;;;;;;;;;;;;;;;5074779;28;19913;-77
2024/01/16 14:36:49;;;;;;;;;;;;;;;;;;5070321;28;19928;-76
2024/01/16 14:39:21;;;;;;;;;;;;;;;;;;5087499;28;20350;-77
2024/01/16 14:41:47;;;;;;;;;;;;;;;;;;5085819;28;20003;-77
2024/01/16 14:44:13;;;;;;;;;;;;;;;;;;5079929;28;19992;-77
2024/01/16 14:46:39;;;;;;;;;;;;;;;;;;5074899;28;19916;-75
2024/01/16 14:49:05;;;;;;;;;;;;;;;;;;5068867;28;19962;-77
2024/01/16 14:51:31;;;;;;;;;;;;;;;;;;5088492;28;20337;-76
2024/01/16 14:53:57;;;;;;;;;;;;;;;;;;5087301;28;19908;-77
2024/01/16 14:56:23;;;;;;;;;;;;;;;;;;5089702;28;19943;-77
2024/01/16 14:58:49;;;;;;;;;;;;;;;;;;5085289;28;20184;-77
2024/01/16 15:01:16;;;;;;;;;;;;;;;;;;5069532;28;19912;-77
2024/01/16 15:03:42;;;;;;;;;;;;;;;;;;5072282;28;19913;-77
2024/01/16 15:06:12;;;;;;;;;;;;;;;;;;5075222;28;19980;-76
2024/01/16 15:08:38;;;;;;;;;;;;;;;;;;5086422;28;19959;-81
2024/01/16 15:11:05;;;;;;;;;;;;;;;;;;5070509;28;20167;-76
2024/01/16 15:13:31;;;;;;;;;;;;;;;;;;5092188;28;19912;-82
2024/01/16 15:15:57;;;;;;;;;;;;;;;;;;5080305;28;19911;-78
2024/01/16 15:18:23;;;;;;;;;;;;;;;;;;5077762;28;20072;-78
2024/01/16 15:20:49;;;;;;;;;;;;;;;;;;5071129;28;19917;-79
2024/01/16 15:23:15;;;;;;;;;;;;;;;;;;5082241;28;20009;-79
2024/01/16 15:25:40;;;;;;;;;;;;;;;;;;5051073;28;20585;-79
2024/01/16 15:28:06;;;;;;;;;;;;;;;;;;5079573;28;20492;-92
2024/01/16 15:30:32;;;;;;;;;;;;;;;;;;5072588;28;19916;-85
2024/01/16 15:32:58;;;;;;;;;;;;;;;;;;5073713;28;20431;-80
2024/01/16 15:35:24;;;;;;;;;;;;;;;;;;5076716;28;19959;-89
2024/01/16 15:37:50;;;;;;;;;;;;;;;;;;5077729;28;19924;-81
2024/01/16 15:40:16;;;;;;;;;;;;;;;;;;5090122;28;19909;-80
2024/01/16 15:42:42;;;;;;;;;;;;;;;;;;5080246;28;19916;-78
2024/01/16 15:45:08;;;;;;;;;;;;;;;;;;5075509;28;19919;-78
2024/01/16 15:47:33;;;;;;;;;;;;;;;;;;5053713;28;20035;-83
2024/01/16 15:49:59;;;;;;;;;;;;;;;;;;5075772;28;19919;-94
2024/01/16 15:52:25;;;;;;;;;;;;;;;;;;5075553;28;19928;-77
2024/01/16 15:54:51;;;;;;;;;;;;;;;;;;5083719;28;20377;-76
2024/01/16 15:57:17;;;;;;;;;;;;;;;;;;5072688;28;20452;-76
2024/01/16 15:59:43;;;;;;;;;;;;;;;;;;5078772;28;19924;-75
2024/01/16 16:02:09;;;;;;;;;;;;;;;;;;5081700;28;19908;-77
2024/01/16 16:04:35;;;;;;;;;;;;;;;;;;5083287;28;19916;-76
2024/01/16 16:07:01;;;;;;;;;;;;;;;;;;5089274;28;19924;-75
2024/01/16 16:09:28;;;;;;;;;;;;;;;;;;5088973;28;19923;-75
2024/01/16 16:11:54;;;;;;;;;;;;;;;;;;5078393;28;20325;-76
2024/01/16 16:14:20;;;;;;;;;;;;;;;;;;5086329;28;19922;-76
2024/01/16 16:16:46;;;;;;;;;;;;;;;;;;5083731;28;20400;-76
2024/01/16 16:19:12;;;;;;;;;;;;;;;;;;5082241;28;19924;-76
2024/01/16 16:21:38;;;;;;;;;;;;;;;;;;5076089;28;19920;-76
2024/01/16 16:24:04;;;;;;;;;;;;;;;;;;5086428;28;19919;-76
2024/01/16 16:26:30;;;;;;;;;;;;;;;;;;5085374;28;19941;-76
2024/01/16 16:28:56;;;;;;;;;;;;;;;;;;5073349;28;20015;-75
2024/01/16 16:31:22;;;;;;;;;;;;;;;;;;5070969;28;19999;-76
2024/01/16 16:33:48;;;;;;;;;;;;;;;;;;5085498;28;19916;-76
2024/01/16 16:36:13;;;;;;;;;;;;;;;;;;5083101;28;20007;-75